Time;durP1;ratioP1;P1;durP2;ratioP2;P2;SDS_P1;SDS_P2;PMS_P1;PMS_P2;Temp;Humidity;BMP_temperature;BMP_pressure;BME280_temperature;BME280_humidity;BME280_pressure;Samples;Min_cycle;Max_cycle;Signal;HPM_P1;HPM_P2
2022/10/04 00:00:27;;;;;;;;;17.00;11.50;;;;;21.47;44.75;101771.00;4899805;28;45445;-50
2022/10/04 00:03:01;;;;;;;;;13.50;11.25;;;;;21.45;44.87;101776.34;4898555;29;48033;-44
2022/10/04 00:05:29;;;;;;;;;12.50;11.75;;;;;21.45;44.71;101775.47;4899660;28;45743;-48
2022/10/04 00:08:00;;;;;;;;;15.00;13.25;;;;;21.45;44.65;101784.25;4899773;28;45340;-52
2022/10/04 00:10:30;;;;;;;;;13.00;11.50;;;;;21.45;44.87;101780.75;4899622;28;45541;-52
2022/10/04 00:13:00;;;;;;;;;12.50;11.00;;;;;21.45;44.47;101780.75;4899570;29;46844;-53
2022/10/04 00:15:32;;;;;;;;;12.75;11.25;;;;;21.44;44.81;101776.41;4897996;29;45497;-49
2022/10/04 00:18:15;;;;;;;;;14.25;10.75;;;;;21.43;44.45;101780.81;4899793;28;45466;-45
2022/10/04 00:20:49;;;;;;;;;11.00;11.00;;;;;21.44;44.80;101776.41;4899868;28;45525;-54
2022/10/04 00:23:23;;;;;;;;;14.25;11.50;;;;;21.43;44.99;101772.06;4899030;28;45578;-46
2022/10/04 00:25:59;;;;;;;;;14.00;11.25;;;;;21.43;44.48;101766.78;4899563;29;45366;-46
2022/10/04 00:28:25;;;;;;;;;14.00;11.75;;;;;21.42;44.67;101765.06;4899564;28;45387;-47
2022/10/04 00:31:08;;;;;;;;;14.50;12.75;;;;;21.42;44.43;101770.34;4899587;28;45347;-45
2022/10/04 00:33:41;;;;;;;;;12.50;11.75;;;;;21.42;44.91;101778.25;4899848;28;45434;-43
2022/10/04 00:36:24;;;;;;;;;10.75;10.25;;;;;21.42;44.74;101780.91;4899624;28;45371;-48
2022/10/04 00:39:08;;;;;;;;;11.25;11.25;;;;;21.41;44.75;101782.66;4899620;28;45236;-46
2022/10/04 00:41:45;;;;;;;;;11.00;9.75;;;;;21.41;44.78;101776.53;4900152;28;45308;-45
2022/10/04 00:44:21;;;;;;;;;16.00;13.25;;;;;21.40;44.98;101777.47;4901351;28;47493;-49
2022/10/04 00:46:49;;;;;;;;;13.00;11.75;;;;;21.39;44.41;101763.41;4904924;29;45323;-46
2022/10/04 00:49:17;;;;;;;;;17.00;14.50;;;;;21.39;44.64;101767.84;4902305;28;45499;-50
2022/10/04 00:51:47;;;;;;;;;15.75;12.75;;;;;21.40;44.56;101769.56;4901183;29;45547;-56
2022/10/04 00:54:32;;;;;;;;;12.25;11.75;;;;;21.38;44.84;101758.22;4906258;29;46884;-51
2022/10/04 00:57:07;;;;;;;;;14.75;14.00;;;;;21.37;44.70;101764.41;4901236;28;45816;-54
2022/10/04 00:59:47;;;;;;;;;13.00;12.00;;;;;21.37;45.11;101754.75;4899515;28;45247;-49
2022/10/04 01:02:28;;;;;;;;;12.75;12.00;;;;;21.38;44.96;101761.72;4899111;29;45366;-49
2022/10/04 01:05:05;;;;;;;;;10.75;10.00;;;;;21.37;44.63;101757.38;4899036;28;46756;-50
2022/10/04 01:07:39;;;;;;;;;16.25;12.75;;;;;21.37;44.63;101751.22;4899336;28;45338;-51
2022/10/04 01:10:17;;;;;;;;;11.75;11.25;;;;;21.37;44.69;101756.50;4900495;28;45329;-56
2022/10/04 01:12:52;;;;;;;;;17.50;15.00;;;;;21.36;44.88;101752.16;4914504;28;45303;-53
2022/10/04 01:15:32;;;;;;;;;13.00;11.75;;;;;21.36;44.84;101741.59;4900487;28;45684;-47
2022/10/04 01:18:16;;;;;;;;;12.00;11.75;;;;;21.36;44.64;101741.59;4902789;28;45801;-52
2022/10/04 01:20:53;;;;;;;;;16.50;15.00;;;;;21.36;44.96;101733.69;4923300;28;44706;-53
2022/10/04 01:23:42;;;;;;;;;13.00;12.75;;;;;21.35;44.77;101724.94;4916951;28;45402;-50
2022/10/04 01:26:25;;;;;;;;;12.25;12.00;;;;;21.35;44.95;101729.34;4899690;29;47630;-50
2022/10/04 01:28:52;;;;;;;;;13.25;13.25;;;;;21.34;45.06;101717.94;4899238;28;45394;-50
2022/10/04 01:31:17;;;;;;;;;13.50;12.00;;;;;21.35;44.61;101721.44;4898439;28;45491;-52
2022/10/04 01:33:43;;;;;;;;;13.25;11.50;;;;;21.34;45.13;101714.44;4898993;28;45494;-49
2022/10/04 01:36:08;;;;;;;;;18.00;15.75;;;;;21.34;44.66;101712.66;4898575;28;46147;-46
2022/10/04 01:38:33;;;;;;;;;13.00;12.50;;;;;21.33;44.61;101713.59;4898890;28;45363;-50
2022/10/04 01:41:03;;;;;;;;;13.50;13.50;;;;;21.34;44.55;101709.16;4898787;28;45162;-48
2022/10/04 01:43:35;;;;;;;;;16.75;15.75;;;;;21.33;45.03;101715.38;4900666;28;45282;-50
2022/10/04 01:46:30;;;;;;;;;9.75;9.25;;;;;21.34;44.88;101714.44;4901855;28;46308;-45
2022/10/04 01:48:58;;;;;;;;;14.25;14.25;;;;;21.34;44.86;101717.06;4901844;29;45323;-46
2022/10/04 01:51:34;;;;;;;;;17.75;14.25;;;;;21.33;45.00;101704.84;4901641;28;45387;-47
2022/10/04 01:54:08;;;;;;;;;13.00;12.25;;;;;21.30;44.88;101698.78;4902240;28;45506;-46
2022/10/04 01:56:44;;;;;;;;;14.25;12.25;;;;;21.31;44.81;101702.25;4901885;28;46628;-47
2022/10/04 01:59:18;;;;;;;;;15.00;15.00;;;;;21.30;44.89;101701.41;4901650;29;45488;-47
2022/10/04 02:01:43;;;;;;;;;12.75;12.75;;;;;21.30;44.68;101706.69;4901805;29;45394;-47
2022/10/04 02:04:26;;;;;;;;;14.33;13.00;;;;;21.30;45.29;101708.44;4901539;28;45466;-46
2022/10/04 02:06:55;;;;;;;;;14.25;13.75;;;;;21.29;44.67;101694.41;4901285;28;45569;-51
2022/10/04 02:09:32;;;;;;;;;17.75;15.25;;;;;21.30;44.83;101692.63;4901077;28;45270;-50
2022/10/04 02:11:59;;;;;;;;;17.50;14.00;;;;;21.29;44.87;101683.00;4901564;29;45380;-49
2022/10/04 02:14:28;;;;;;;;;16.25;13.25;;;;;21.30;44.64;101684.72;4905124;28;45279;-50
2022/10/04 02:16:54;;;;;;;;;16.75;14.00;;;;;21.29;44.76;101683.88;4903030;28;46376;-51
2022/10/04 02:19:31;;;;;;;;;13.50;13.50;;;;;21.28;45.01;101676.88;4901153;28;45440;-46
2022/10/04 02:21:59;;;;;;;;;13.75;13.25;;;;;21.29;44.67;101678.59;4901607;28;45419;-45
2022/10/04 02:24:25;;;;;;;;;12.50;12.50;;;;;21.28;44.67;101660.19;4901440;29;45360;-47
2022/10/04 02:26:51;;;;;;;;;14.00;14.00;;;;;21.29;44.76;101661.91;4901263;28;47036;-46
2022/10/04 02:29:20;;;;;;;;;15.00;14.25;;;;;21.28;44.78;101661.06;4901126;28;45519;-43
2022/10/04 02:34:33;;;;;;;;;16.25;13.50;;;;;21.26;44.91;101652.38;4901778;29;45342;-47
2022/10/04 02:37:02;;;;;;;;;18.75;16.25;;;;;21.26;45.02;101652.38;4901161;29;46492;-49
2022/10/04 02:39:35;;;;;;;;;17.75;13.50;;;;;21.26;44.71;101652.38;4900937;28;45835;-44
2022/10/04 02:42:23;;;;;;;;;21.25;14.25;;;;;21.25;44.53;101648.00;4901231;28;45288;-53
2022/10/04 02:45:11;;;;;;;;;15.50;13.75;;;;;21.25;45.03;101645.38;4901538;28;45445;-51
2022/10/04 02:47:44;;;;;;;;;17.50;14.75;;;;;21.25;44.82;101650.66;4900860;28;45338;-45
2022/10/04 02:50:30;;;;;;;;;18.25;16.25;;;;;21.24;45.07;101648.94;4900478;28;45862;-44
2022/10/04 02:53:36;;;;;;;;;14.75;13.75;;;;;21.25;44.57;101649.81;4900788;28;45323;-51
2022/10/04 02:56:02;;;;;;;;;17.50;15.00;;;;;21.25;44.79;101648.00;4905197;28;45582;-47
2022/10/04 02:58:29;;;;;;;;;16.25;15.25;;;;;21.24;44.52;101643.66;4900428;28;46367;-52
2022/10/04 03:00:58;;;;;;;;;17.50;12.50;;;;;21.24;44.88;101645.47;4900914;28;45904;-49
2022/10/04 03:03:33;;;;;;;;;13.50;13.50;;;;;21.24;44.65;101648.94;4900777;28;45383;-50
2022/10/04 03:06:04;;;;;;;;;13.25;13.25;;;;;21.24;44.77;101642.81;4901143;28;45315;-51
2022/10/04 03:08:34;;;;;;;;;17.00;17.00;;;;;21.23;44.47;101647.22;4900291;28;46468;-45
2022/10/04 03:11:03;;;;;;;;;17.00;14.75;;;;;21.23;44.72;101643.75;4900557;28;45462;-49
2022/10/04 03:13:30;;;;;;;;;15.00;13.75;;;;;21.23;44.57;101638.47;4900561;29;45465;-45
2022/10/04 03:15:56;;;;;;;;;16.50;15.25;;;;;21.22;44.47;101640.25;4901189;28;45290;-48
2022/10/04 03:18:22;;;;;;;;;17.00;15.25;;;;;21.22;44.64;101631.50;4900328;28;45402;-45
2022/10/04 03:20:47;;;;;;;;;17.00;16.25;;;;;21.22;44.68;101636.75;4900753;28;45379;-48
2022/10/04 03:23:16;;;;;;;;;16.25;15.25;;;;;21.22;44.51;101634.13;4900440;28;45382;-49
2022/10/04 03:25:48;;;;;;;;;17.50;15.25;;;;;21.21;44.83;101628.00;4901016;28;45393;-44
2022/10/04 03:28:13;;;;;;;;;18.00;15.25;;;;;21.22;44.78;101631.50;4900364;28;45603;-49
2022/10/04 03:30:43;;;;;;;;;17.50;14.00;;;;;21.20;44.73;101618.38;4900449;28;45358;-51
2022/10/04 03:33:16;;;;;;;;;16.50;16.50;;;;;21.21;44.76;101616.59;4900178;28;45310;-46
2022/10/04 03:35:44;;;;;;;;;17.25;13.25;;;;;21.20;44.59;101610.47;4901295;28;45473;-47
2022/10/04 03:38:11;;;;;;;;;17.50;14.75;;;;;21.20;44.65;101610.47;4903456;28;46758;-45
2022/10/04 03:40:44;;;;;;;;;17.25;14.50;;;;;21.19;44.72;101603.50;4902411;28;45736;-49
2022/10/04 03:43:12;;;;;;;;;14.00;14.00;;;;;21.19;44.75;101600.84;4900563;28;45406;-46
2022/10/04 03:45:40;;;;;;;;;16.00;15.50;;;;;21.20;44.87;101596.44;4901119;28;45468;-46
2022/10/04 03:48:08;;;;;;;;;17.75;13.25;;;;;21.19;44.64;101603.50;4900624;28;46505;-50
2022/10/04 03:50:47;;;;;;;;;16.50;16.25;;;;;21.18;44.56;101609.69;4916096;28;46032;-45
2022/10/04 03:53:31;;;;;;;;;17.25;15.50;;;;;21.19;44.87;101602.63;4925670;28;44653;-51
2022/10/04 03:55:58;;;;;;;;;20.25;15.00;;;;;21.19;44.97;101598.22;4919224;28;44819;-47
2022/10/04 03:58:27;;;;;;;;;17.25;15.00;;;;;21.17;44.71;101597.44;4900588;29;46253;-44
2022/10/04 04:01:04;;;;;;;;;15.75;14.75;;;;;21.18;44.51;101601.78;4917888;28;45230;-51
2022/10/04 04:03:39;;;;;;;;;12.50;11.50;;;;;21.17;44.85;101603.53;4925387;28;44748;-50
2022/10/04 04:06:13;;;;;;;;;16.50;14.75;;;;;21.17;44.80;101597.44;4924612;28;44717;-50
2022/10/04 04:08:43;;;;;;;;;18.00;16.75;;;;;21.17;44.98;101594.78;4923682;28;46735;-44
2022/10/04 04:11:17;;;;;;;;;17.25;16.00;;;;;21.17;44.75;101605.34;4918567;28;46088;-44
2022/10/04 04:13:55;;;;;;;;;16.75;14.75;;;;;21.16;44.85;101601.88;4901006;28;45369;-45
2022/10/04 04:16:27;;;;;;;;;18.75;16.50;;;;;21.17;44.46;101605.34;4899750;28;45429;-56
2022/10/04 04:18:54;;;;;;;;;18.50;16.50;;;;;21.17;45.02;101621.16;4899625;28;46559;-55
2022/10/04 04:21:23;;;;;;;;;15.50;15.50;;;;;21.16;44.78;101620.31;4899507;28;45411;-52
2022/10/04 04:24:02;;;;;;;;;21.50;20.75;;;;;21.15;44.45;101617.72;4900088;28;45390;-56
2022/10/04 04:26:48;;;;;;;;;45.25;36.75;;;;;21.15;44.79;101617.72;4899809;29;45823;-54
2022/10/04 04:29:23;;;;;;;;;58.00;46.75;;;;;21.15;44.82;101621.25;4899532;28;45356;-57
2022/10/04 04:31:57;;;;;;;;;65.75;52.75;;;;;21.16;44.48;101624.72;4899638;28;45800;-54
2022/10/04 04:34:28;;;;;;;;;72.50;59.00;;;;;21.13;44.79;101630.13;4900092;28;45787;-49
2022/10/04 04:36:59;;;;;;;;;73.25;60.50;;;;;21.15;44.76;101629.16;4900233;28;45519;-50
2022/10/04 04:39:33;;;;;;;;;72.00;58.00;;;;;21.15;44.75;101628.28;4899612;28;45690;-54
2022/10/04 04:42:04;;;;;;;;;74.75;65.25;;;;;21.15;45.02;101626.50;4900066;28;45465;-52
2022/10/04 04:44:30;;;;;;;;;76.25;64.25;;;;;21.15;44.76;101621.25;4900014;28;45397;-51
2022/10/04 04:46:59;;;;;;;;;74.00;63.00;;;;;21.15;44.98;101620.38;4902249;28;45569;-56
2022/10/04 04:49:28;;;;;;;;;76.50;66.50;;;;;21.16;44.41;101624.72;4900089;28;46692;-56
2022/10/04 04:51:56;;;;;;;;;74.75;65.00;;;;;21.15;44.49;101628.28;4904936;29;45323;-56
2022/10/04 04:54:25;;;;;;;;;76.00;64.75;;;;;21.14;44.91;101626.56;4907474;28;45240;-56
2022/10/04 04:56:52;;;;;;;;;76.50;65.00;;;;;21.13;44.58;101628.34;4914508;29;45413;-52
2022/10/04 04:59:21;;;;;;;;;74.75;65.25;;;;;21.13;44.51;101624.84;4922220;28;45473;-46
2022/10/04 05:01:48;;;;;;;;;76.25;63.25;;;;;21.13;44.62;101624.84;4921369;28;45254;-52
2022/10/04 05:04:18;;;;;;;;;70.00;57.25;;;;;21.13;45.10;101628.34;4921084;28;45354;-53
2022/10/04 05:06:46;;;;;;;;;72.00;58.50;;;;;21.14;44.82;101631.84;4920988;28;45684;-50
2022/10/04 05:09:31;;;;;;;;;71.00;57.75;;;;;21.13;45.04;101631.00;4922588;28;46241;-47
2022/10/04 05:12:22;;;;;;;;;68.25;53.25;;;;;21.12;44.47;101624.00;4917731;28;45376;-45
2022/10/04 05:14:53;;;;;;;;;69.75;55.75;;;;;21.12;44.58;101628.41;4920625;28;44738;-45
2022/10/04 05:17:19;;;;;;;;;66.00;54.50;;;;;21.12;44.60;101633.69;4923397;29;44732;-46
2022/10/04 05:19:45;;;;;;;;;68.75;54.50;;;;;21.12;44.67;101639.81;4916007;28;46580;-52
2022/10/04 05:22:13;;;;;;;;;65.75;53.00;;;;;21.12;44.83;101633.69;4909773;28;45350;-44
2022/10/04 05:24:41;;;;;;;;;65.00;51.25;;;;;21.11;44.81;101627.56;4906158;28;45395;-51
2022/10/04 05:27:15;;;;;;;;;70.25;54.50;;;;;21.11;44.80;101632.84;4905777;28;45668;-46
2022/10/04 05:30:04;;;;;;;;;64.00;49.75;;;;;21.13;44.66;101630.13;4902828;28;46218;-52
2022/10/04 05:32:39;;;;;;;;;61.25;49.25;;;;;21.10;44.96;101625.00;4902141;28;45274;-47
2022/10/04 05:35:18;;;;;;;;;61.50;50.50;;;;;21.10;44.38;101620.56;4902535;28;45354;-49
2022/10/04 05:37:57;;;;;;;;;64.50;51.00;;;;;21.10;44.95;101615.31;4903022;28;45476;-48
2022/10/04 05:40:49;;;;;;;;;60.00;48.25;;;;;21.11;44.63;101616.19;4902230;28;45698;-47
2022/10/04 05:43:23;;;;;;;;;59.25;47.50;;;;;21.08;44.76;101617.16;4900687;28;45308;-44
2022/10/04 05:46:17;;;;;;;;;58.25;47.75;;;;;21.09;44.72;101618.88;4902151;28;46486;-44
2022/10/04 05:48:44;;;;;;;;;58.00;46.50;;;;;21.08;44.73;101617.16;4902125;28;45445;-46
2022/10/04 05:51:36;;;;;;;;;56.75;46.25;;;;;21.09;44.61;101624.13;4904049;28;47324;-55
2022/10/04 05:54:02;;;;;;;;;57.50;46.50;;;;;21.07;44.77;101625.97;4901929;29;45683;-45
2022/10/04 05:56:46;;;;;;;;;60.75;47.00;;;;;21.08;44.39;101618.94;4901275;28;45323;-46
2022/10/04 05:59:20;;;;;;;;;53.25;45.00;;;;;21.09;44.34;101618.03;4901853;28;45266;-46
2022/10/04 06:01:52;;;;;;;;;55.75;45.50;;;;;21.08;44.25;101618.94;4901487;28;46387;-45
2022/10/04 06:04:24;;;;;;;;;51.75;43.75;;;;;21.08;44.42;101616.31;4901479;28;45879;-45
2022/10/04 06:07:03;;;;;;;;;56.50;44.50;;;;;21.08;44.74;101613.66;4901583;29;45351;-47
2022/10/04 06:10:01;;;;;;;;;52.75;42.25;;;;;21.07;44.39;101615.44;4901613;28;45501;-47
2022/10/04 06:12:45;;;;;;;;;51.00;41.50;;;;;21.07;44.89;101615.44;4901384;28;46130;-46
2022/10/04 06:15:57;;;;;;;;;51.50;40.50;;;;;21.06;45.00;101618.16;4906128;28;45340;-44
2022/10/04 06:18:52;;;;;;;;;52.50;42.25;;;;;21.07;44.42;101614.59;4903563;28;45860;-52
2022/10/04 06:21:24;;;;;;;;;50.75;41.25;;;;;21.05;44.40;101612.03;4906326;28;45708;-48
2022/10/04 06:24:01;;;;;;;;;46.50;35.25;;;;;21.04;44.50;101620.00;4907437;28;45523;-56
2022/10/04 06:26:34;;;;;;;;;41.75;36.25;;;;;21.01;44.14;101627.09;4903620;28;45390;-48
2022/10/04 06:29:09;;;;;;;;;36.00;30.75;;;;;20.98;44.11;101629.03;4919413;28;45261;-51
2022/10/04 06:31:50;;;;;;;;;36.00;32.00;;;;;20.95;44.35;101626.53;4923508;28;44752;-50
2022/10/04 06:34:54;;;;;;;;;36.50;30.50;;;;;20.91;44.43;101631.09;4918606;28;45676;-54
2022/10/04 06:37:47;;;;;;;;;29.25;29.25;;;;;20.90;43.80;101637.28;4902010;28;45434;-53
2022/10/04 06:40:46;;;;;;;;;31.50;30.25;;;;;20.87;43.62;101639.19;4901793;28;45344;-49
2022/10/04 06:43:34;;;;;;;;;32.25;31.50;;;;;20.83;43.99;101638.47;4901271;28;45691;-49
2022/10/04 06:46:05;;;;;;;;;23.75;23.50;;;;;20.80;44.14;101644.75;4901429;28;46646;-53
2022/10/04 06:48:49;;;;;;;;;28.25;27.25;;;;;20.78;44.11;101637.84;4900908;28;45403;-49
2022/10/04 06:51:41;;;;;;;;;30.50;26.25;;;;;20.75;43.72;101630.06;4900782;28;45490;-44
2022/10/04 06:54:30;;;;;;;;;32.25;25.50;;;;;20.71;43.87;101637.22;4900501;28;45201;-45
2022/10/04 06:57:36;;;;;;;;;27.25;25.25;;;;;20.70;43.79;101638.97;4899758;29;47035;-45
2022/10/04 07:00:21;;;;;;;;;30.75;26.25;;;;;20.68;43.91;101640.81;4900911;28;46029;-46
2022/10/04 07:02:49;;;;;;;;;28.00;23.00;;;;;20.66;43.55;101641.81;4900914;28;45368;-45
2022/10/04 07:05:45;;;;;;;;;28.00;25.25;;;;;20.64;44.24;101644.53;4900662;28;45272;-47
2022/10/04 07:08:33;;;;;;;;;26.25;26.25;;;;;20.64;44.10;101644.53;4900185;28;47349;-49
2022/10/04 07:11:25;;;;;;;;;21.50;20.25;;;;;20.65;44.04;101633.06;4900866;28;45398;-43
2022/10/04 07:14:02;;;;;;;;;30.00;25.50;;;;;20.66;43.88;101642.69;4900616;28;45242;-45
2022/10/04 07:16:37;;;;;;;;;20.50;19.00;;;;;20.65;43.91;101640.97;4900874;28;45674;-56
2022/10/04 07:19:08;;;;;;;;;25.00;21.25;;;;;20.67;44.28;101638.25;4900677;28;47185;-55
2022/10/04 07:22:05;;;;;;;;;21.00;21.00;;;;;20.68;43.85;101640.81;4900629;28;45807;-56
2022/10/04 07:24:36;;;;;;;;;21.75;18.25;;;;;20.69;44.27;101641.69;4900468;28;45336;-53
2022/10/04 07:27:08;;;;;;;;;20.25;18.75;;;;;20.70;44.04;101644.25;4900892;28;45513;-55
2022/10/04 07:29:43;;;;;;;;;20.75;19.00;;;;;20.72;44.02;101640.69;4900368;28;46259;-49
2022/10/04 07:32:21;;;;;;;;;17.50;16.00;;;;;20.73;44.29;101642.41;4899875;28;45302;-47
2022/10/04 07:34:46;;;;;;;;;22.50;19.75;;;;;20.76;44.27;101652.84;4900037;28;45379;-52
2022/10/04 07:37:13;;;;;;;;;18.33;18.33;;;;;20.79;44.03;101650.06;4900120;28;45371;-50
2022/10/04 07:39:47;;;;;;;;;20.25;18.75;;;;;20.81;44.01;101653.50;4899712;28;45696;-47
2022/10/04 07:42:25;;;;;;;;;21.50;18.50;;;;;20.83;44.02;101659.56;4899247;28;45459;-47
2022/10/04 07:45:11;;;;;;;;;18.25;18.25;;;;;20.84;44.02;101656.84;4899623;28;45355;-46
2022/10/04 07:47:36;;;;;;;;;20.50;17.25;;;;;20.86;44.00;101656.78;4900383;28;45445;-41
2022/10/04 07:50:25;;;;;;;;;19.75;18.75;;;;;20.87;43.81;101647.97;4900578;29;46357;-47
2022/10/04 07:53:09;;;;;;;;;21.00;18.00;;;;;20.88;44.23;101647.06;4897716;28;45828;-47
2022/10/04 07:56:03;;;;;;;;;17.00;17.00;;;;;20.90;44.05;101647.81;4898753;28;45794;-45
2022/10/04 07:58:44;;;;;;;;;15.00;15.00;;;;;20.91;44.10;101656.59;4900737;29;45944;-42
2022/10/04 08:01:12;;;;;;;;;17.50;16.50;;;;;20.91;44.04;101652.16;4900669;28;45510;-46
2022/10/04 08:03:49;;;;;;;;;14.75;14.25;;;;;20.91;44.11;101648.69;4900797;28;45891;-42
2022/10/04 08:06:51;;;;;;;;;14.00;14.00;;;;;20.92;44.05;101647.75;4902425;28;45479;-42
2022/10/04 08:09:42;;;;;;;;;17.50;15.50;;;;;20.89;43.98;101632.09;4907210;28;45673;-46
2022/10/04 08:12:34;;;;;;;;;17.75;14.75;;;;;20.93;44.25;101642.41;4904173;29;47716;-45
2022/10/04 08:15:32;;;;;;;;;16.00;15.50;;;;;20.93;43.98;101633.66;4899933;29;45986;-46
2022/10/04 08:18:03;;;;;;;;;19.25;14.25;;;;;20.91;43.88;101633.72;4899745;28;45377;-41
2022/10/04 08:20:38;;;;;;;;;21.00;15.75;;;;;20.95;44.28;101637.06;4899572;28;45817;-41
2022/10/04 08:23:33;;;;;;;;;20.25;18.00;;;;;20.92;44.46;101622.25;4899804;28;46317;-44
2022/10/04 08:26:16;;;;;;;;;14.00;14.00;;;;;20.97;44.04;101635.22;4914943;28;45395;-43
2022/10/04 08:31:51;;;;;;;;;19.00;17.00;;;;;20.97;44.24;101638.72;4909178;29;44737;-45
2022/10/04 08:34:44;;;;;;;;;18.25;15.00;;;;;20.99;43.91;101651.81;4908390;28;46299;-41
2022/10/04 08:37:44;;;;;;;;;19.75;16.25;;;;;21.01;44.49;101655.25;4912033;28;45243;-42
2022/10/04 08:40:40;;;;;;;;;15.75;12.75;;;;;21.00;44.25;101657.03;4903245;28;45275;-48
2022/10/04 08:43:14;;;;;;;;;16.50;14.75;;;;;21.01;44.19;101661.38;4905458;28;45263;-45
2022/10/04 08:45:52;;;;;;;;;14.25;12.25;;;;;21.01;44.37;101669.28;4899891;29;47424;-47
2022/10/04 08:48:44;;;;;;;;;15.00;14.50;;;;;21.03;44.42;101669.22;4900227;28;45343;-47
2022/10/04 08:51:34;;;;;;;;;15.75;15.00;;;;;21.03;44.37;101669.22;4900531;28;45402;-44
2022/10/04 08:54:27;;;;;;;;;15.00;12.75;;;;;21.03;44.24;101665.72;4900696;29;45768;-46
2022/10/04 08:57:11;;;;;;;;;15.25;13.50;;;;;21.03;44.03;101674.50;4908743;28;46347;-40
2022/10/04 08:59:58;;;;;;;;;17.75;13.50;;;;;21.05;44.09;101677.06;4917541;28;45287;-45
2022/10/04 09:02:29;;;;;;;;;14.25;13.75;;;;;21.05;44.31;101666.50;4921217;28;44695;-43
2022/10/04 09:05:13;;;;;;;;;20.50;15.00;;;;;21.05;44.34;101671.78;4913564;28;45299;-42
2022/10/04 09:07:57;;;;;;;;;14.75;13.75;;;;;21.07;44.50;101675.22;4900910;28;46366;-47
2022/10/04 09:10:34;;;;;;;;;14.50;13.50;;;;;21.07;44.20;101669.94;4899204;28;45553;-42
2022/10/04 09:13:16;;;;;;;;;17.00;11.75;;;;;21.08;44.39;101676.94;4898728;28;45331;-45
2022/10/04 09:15:53;;;;;;;;;13.75;13.00;;;;;21.09;44.15;101674.22;4880346;29;45560;-47
2022/10/04 09:18:21;;;;;;;;;13.75;13.75;;;;;21.10;44.55;101673.28;4879493;29;48022;-55
2022/10/04 09:21:04;;;;;;;;;14.00;13.00;;;;;21.11;43.97;101674.16;4882580;28;45444;-48
2022/10/04 09:23:29;;;;;;;;;17.25;14.50;;;;;21.12;44.18;101676.72;4919447;28;45262;-52
2022/10/04 09:26:27;;;;;;;;;14.67;14.00;;;;;21.11;44.08;101680.28;4918758;28;45191;-45
2022/10/04 09:29:17;;;;;;;;;15.25;14.25;;;;;21.11;44.30;101676.81;4914177;28;45595;-45
2022/10/04 09:32:01;;;;;;;;;12.75;11.25;;;;;21.12;44.17;101681.13;4898652;28;45773;-51
2022/10/04 09:34:38;;;;;;;;;13.25;12.75;;;;;21.12;44.41;101673.22;4899274;28;45385;-51
2022/10/04 09:37:27;;;;;;;;;13.75;13.75;;;;;21.12;43.90;101670.56;4900053;28;45377;-46
2022/10/04 09:40:25;;;;;;;;;15.75;12.25;;;;;21.13;43.97;101667.03;4899031;28;45337;-46
2022/10/04 09:43:09;;;;;;;;;13.50;12.75;;;;;21.12;44.40;101658.28;4907999;28;45457;-47
2022/10/04 09:45:59;;;;;;;;;16.25;15.00;;;;;21.13;44.45;101648.56;4898012;29;45423;-52
2022/10/04 09:48:31;;;;;;;;;14.50;14.50;;;;;21.13;44.29;101645.94;4899894;28;45340;-46
2022/10/04 09:51:08;;;;;;;;;14.75;13.25;;;;;21.12;43.93;101645.09;4899603;29;45403;-47
2022/10/04 09:53:45;;;;;;;;;13.00;13.00;;;;;21.12;43.83;101644.22;4899321;28;45290;-46
2022/10/04 09:56:25;;;;;;;;;12.00;12.00;;;;;21.13;43.85;101645.94;4899296;28;45353;-48
2022/10/04 09:59:13;;;;;;;;;17.25;15.25;;;;;21.13;44.13;101651.19;4899744;29;45600;-49
2022/10/04 10:01:51;;;;;;;;;15.25;14.50;;;;;21.13;44.43;101653.84;4899949;28;46392;-52
2022/10/04 10:04:35;;;;;;;;;12.75;12.75;;;;;21.12;43.84;101660.91;4900918;28;45296;-55
2022/10/04 10:07:21;;;;;;;;;13.50;11.00;;;;;21.12;44.37;101649.50;4902257;28;45318;-51
2022/10/04 10:16:28;;;;;;;;;15.50;15.00;;;;;21.12;44.04;101638.94;4912720;29;45187;-48
2022/10/04 10:19:29;;;;;;;;;14.50;11.00;;;;;21.13;43.93;101641.53;4904949;28;45362;-52
2022/10/04 10:22:12;;;;;;;;;16.75;16.00;;;;;21.13;44.18;101628.34;4901717;28;45539;-49
2022/10/04 10:25:08;;;;;;;;;16.50;14.50;;;;;21.12;44.37;101625.75;4900814;28;45541;-51
2022/10/04 10:28:05;;;;;;;;;19.50;17.25;;;;;21.15;44.37;101623.00;4900833;28;45798;-49
2022/10/04 10:30:50;;;;;;;;;16.75;14.00;;;;;21.17;44.02;101621.16;4902447;28;45176;-51
2022/10/04 10:33:39;;;;;;;;;16.25;15.75;;;;;21.17;44.51;101613.25;4901437;28;45225;-54
2022/10/04 10:36:23;;;;;;;;;20.00;14.75;;;;;21.19;44.01;101615.81;4901791;28;45453;-51
2022/10/04 10:39:02;;;;;;;;;16.00;16.00;;;;;21.18;44.29;101601.78;4900250;29;45373;-53
2022/10/04 10:41:40;;;;;;;;;18.00;16.50;;;;;21.19;44.22;101606.13;4901694;29;45315;-50
2022/10/04 10:44:25;;;;;;;;;16.50;15.75;;;;;21.20;44.34;101609.59;4902163;28;45371;-52
2022/10/04 10:46:51;;;;;;;;;19.50;17.25;;;;;21.19;44.37;101611.41;4901233;28;47153;-53
2022/10/04 10:49:34;;;;;;;;;16.50;14.25;;;;;21.20;44.02;101604.34;4901160;28;45360;-49
2022/10/04 10:52:34;;;;;;;;;35.00;26.75;;;;;21.20;44.13;101615.75;4899909;29;45357;-52
2022/10/04 10:55:15;;;;;;;;;65.50;50.25;;;;;21.21;44.27;101606.91;4901619;28;45548;-46
2022/10/04 10:58:03;;;;;;;;;73.25;55.75;;;;;21.21;44.45;101606.03;4901215;28;45979;-51
2022/10/04 11:01:18;;;;;;;;;90.50;75.00;;;;;21.21;44.05;101609.56;4900966;28;45492;-48
2022/10/04 11:04:21;;;;;;;;;84.75;66.50;;;;;21.23;44.19;101609.47;4901282;28;45481;-51
2022/10/04 11:07:16;;;;;;;;;104.75;87.50;;;;;21.23;44.29;101604.19;4901561;28;45731;-51
2022/10/04 11:10:28;;;;;;;;;87.75;71.25;;;;;21.20;44.21;101597.28;4900742;28;46536;-55
2022/10/04 11:13:20;;;;;;;;;98.50;86.00;;;;;21.23;44.32;101598.94;4916528;28;45492;-49
2022/10/04 11:16:12;;;;;;;;;104.25;88.25;;;;;21.23;44.12;101598.94;4899259;28;45466;-52
2022/10/04 11:18:55;;;;;;;;;95.50;78.25;;;;;21.24;44.56;101604.13;4898954;28;45593;-51
2022/10/04 11:21:45;;;;;;;;;88.75;76.50;;;;;21.27;44.69;101611.91;4898886;28;47380;-50
2022/10/04 11:24:43;;;;;;;;;92.50;79.50;;;;;21.28;44.23;101616.25;4898163;28;45739;-55
2022/10/04 11:27:32;;;;;;;;;98.50;77.50;;;;;21.30;44.18;101613.53;4898901;29;45381;-46
2022/10/04 11:30:07;;;;;;;;;82.75;71.50;;;;;21.31;44.39;101613.47;4900752;28;45634;-50
2022/10/04 11:33:13;;;;;;;;;85.25;70.50;;;;;21.31;44.46;101618.75;4905533;28;47247;-52
2022/10/04 11:35:54;;;;;;;;;81.25;68.25;;;;;21.34;44.70;101617.75;4912702;28;45439;-48
2022/10/04 11:38:47;;;;;;;;;79.25;65.00;;;;;21.35;44.51;101618.59;4912661;28;45237;-52
2022/10/04 11:41:24;;;;;;;;;80.75;67.50;;;;;21.35;44.35;101629.13;4912620;28;45758;-52
2022/10/04 11:44:15;;;;;;;;;78.00;59.50;;;;;21.36;44.39;101625.56;4900667;28;45428;-49
2022/10/04 11:46:56;;;;;;;;;76.75;61.00;;;;;21.37;44.44;101622.88;4900112;28;45563;-47
2022/10/04 11:49:21;;;;;;;;;76.25;61.75;;;;;21.37;44.72;101629.91;4899605;28;45252;-47
2022/10/04 11:52:05;;;;;;;;;81.33;59.00;;;;;21.39;44.74;101628.06;4899425;28;45354;-56
2022/10/04 11:55:09;;;;;;;;;73.75;59.00;;;;;21.39;44.62;101620.16;4897318;29;48195;-46
2022/10/04 11:58:01;;;;;;;;;74.50;54.00;;;;;21.39;44.32;101620.16;4907020;28;45770;-49
2022/10/04 12:00:57;;;;;;;;;72.25;53.00;;;;;21.40;44.55;101616.59;4901877;28;45271;-48
2022/10/04 12:03:41;;;;;;;;;73.75;55.25;;;;;21.40;44.58;101608.69;4909064;28;45318;-50
2022/10/04 12:06:30;;;;;;;;;68.75;53.00;;;;;21.41;44.91;101613.88;4909952;28;46250;-52
2022/10/04 12:09:10;;;;;;;;;69.00;52.50;;;;;21.42;44.62;101615.59;4898098;29;45325;-54
2022/10/04 12:13:14;;;;;;;;;71.75;52.00;;;;;21.42;44.75;101612.13;5109973;27;45581;-49
2022/10/04 12:15:52;;;;;;;;;69.25;53.25;;;;;21.42;44.69;101609.47;5093002;27;45396;-52